Home > Products > Valid Products > TAF

000
FTUS43 KDLH 200900 AAA
TAFDLH
TAF AMD
KDLH 200902Z 2009/2106 VRB04KT P6SM SKC
      TEMPO 2010/2012 3SM BR SKC
     FM201400 33007KT P6SM SKC=



000
FTUS43 KDLH 200900 AAA
TAFHYR
TAF AMD
KHYR 200900Z 2009/2106 VRB03KT P6SM BKN100
     FM201400 VRB05KT P6SM SCT030=



000
FTUS43 KDLH 200500
TAFDLH
TAF
KDLH 200533Z 2006/2106 VRB04KT P6SM SKC
     FM200900 VRB03KT 4SM BR SKC
     FM201400 33007KT P6SM SKC=



000
FTUS43 KDLH 200500
TAFINL
TAF
KINL 200533Z 2006/2106 VRB05KT P6SM SKC
     FM201300 27009KT P6SM SCT040=



000
FTUS43 KDLH 200500
TAFBRD
TAF
KBRD 200533Z 2006/2106 VRB04KT P6SM FEW060
     FM201300 32007KT P6SM SKC=



000
FTUS43 KDLH 200500
TAFHYR
TAF
KHYR 200533Z 2006/2106 VRB03KT P6SM OVC050
     FM200900 VRB03KT 5SM BR FEW050
     FM201400 VRB05KT P6SM SCT030=



000
FTUS43 KDLH 200200 AAA
TAFBRD
TAF AMD
KBRD 200206Z 2002/2024 25004KT P6SM SKC
     FM200600 33006KT 4SM BR SKC
     FM201200 32007KT P6SM SKC=



000
FTUS43 KDLH 200100 AAA
TAFINL
TAF AMD
KINL 200104Z 2001/2024 26011KT P6SM SCT050
     FM200600 VRB05KT 5SM BR BKN250
     FM201200 27009KT P6SM SCT040=



000
FTUS43 KDLH 192300
TAFINL
TAF
KINL 192338Z 2000/2024 24012G20KT P6SM SCT040
     FM200600 VRB05KT 5SM BR BKN250
     FM201200 27009KT P6SM SCT040=



000
FTUS43 KDLH 192300
TAFBRD
TAF
KBRD 192338Z 2000/2024 25013KT P6SM SKC
     FM200600 33006KT 4SM BR SKC
     FM201200 32007KT P6SM SKC=



000
FTUS43 KDLH 192300
TAFDLH
TAF
KDLH 192338Z 2000/2024 20008KT P6SM FEW040
     FM200600 28006KT P6SM SCT030
     FM201200 33007KT P6SM SCT040=



000
FTUS43 KDLH 192300
TAFHYR
TAF
KHYR 192338Z 2000/2024 19007KT P6SM VCSH SCT050 BKN060
     FM200100 19007KT P6SM SCT050 BKN110
     FM200600 VRB05KT 4SM BR SCT040
     FM201400 VRB05KT P6SM SCT030=



000
FTUS43 KDLH 192300 AAB
TAFHYR
TAF AMD
KHYR 192314Z 1923/2018 17009KT P6SM VCSH SCT070 BKN090
     FM200600 VRB05KT 4SM BR SCT040
     FM201400 VRB05KT P6SM SCT030=



000
FTUS43 KDLH 192300 AAA
TAFINL
TAF AMD
KINL 192304Z 1923/2018 22015G27KT P6SM SKC
     FM200100 25015KT P6SM SCT040
     FM200600 VRB05KT 5SM BR BKN250
     FM201200 27007KT P6SM SCT040=



000
FTUS43 KDLH 192100 AAA
TAFHYR
TAF AMD
KHYR 192102Z 1921/2018 18003KT 5SM -RA SCT050 BKN060
      TEMPO 1921/1922 3SM -RA BR OVC035
     FM200100 20006KT P6SM OVC040
     FM200600 VRB05KT 4SM BR SCT040
     FM201400 VRB05KT P6SM SCT030=



000
FTUS43 KDLH 192100 AAA
TAFDLH
TAF AMD
KDLH 192101Z 1921/2018 15008KT P6SM OVC040
     FM192300 13008KT P6SM SCT040
     FM200600 33008KT P6SM SKC
     FM201200 33007KT P6SM SCT040=



000
FTUS43 KDLH 191800 AAA
TAFBRD
TAF AMD
KBRD 191823Z 1918/2018 18018G25KT P6SM BKN100
     FM192200 21009KT P6SM SKC
     FM200600 33006KT 4SM BR SKC
     FM201200 32007KT P6SM SCT040=



000
FTUS43 KDLH 191700
TAFHYR
TAF
KHYR 191731Z 1918/2018 17014G22KT P6SM VCSH SCT035 OVC060
      TEMPO 1918/1922 3SM -SHRA BR OVC035
     FM200100 20006KT P6SM OVC040
     FM200600 VRB05KT 4SM BR SCT040
     FM201400 VRB05KT P6SM SCT030=



000
FTUS43 KDLH 191700
TAFINL
TAF
KINL 191731Z 1918/2018 16018G25KT P6SM OVC025
      TEMPO 1918/1919 SCT025
     FM191900 16015G25KT P6SM SCT025
     FM192100 18010KT P6SM SCT015
     FM200600 VRB05KT 5SM BR BKN250
     FM201200 27007KT P6SM SCT040=



000
FTUS43 KDLH 191700
TAFDLH
TAF
KDLH 191731Z 1918/2018 11015G25KT P6SM VCSH BKN100
     FM192200 15008KT P6SM SCT060
     FM200600 33008KT P6SM SKC
     FM201200 33007KT P6SM SCT040=



000
FTUS43 KDLH 191700
TAFBRD
TAF
KBRD 191731Z 1918/2018 16018G25KT P6SM BKN100
     FM192200 21009KT P6SM SKC
     FM200600 33006KT 4SM BR SKC
     FM201200 32007KT P6SM SCT040=



000
FTUS43 KDLH 191600 AAA
TAFHYR
TAF AMD
KHYR 191639Z 1917/2012 15011G18KT P6SM OVC060
     FM191900 21014G22KT P6SM VCSH SCT035 OVC060
     FM192100 22012G22KT P6SM -SHRA BKN035
      TEMPO 1921/1924 3SM -SHRA BR BKN035
     FM200100 20006KT P6SM OVC040=



000
FTUS43 KDLH 191500 AAB
TAFBRD
TAF AMD
KBRD 191529Z 1915/2012 16018G25KT P6SM -RA SCT025 OVC050
      TEMPO 1915/1918 5SM -RA OVC030
     FM191800 18014G22KT P6SM VCSH BKN035
     FM192000 20011KT P6SM SCT035 BKN060
     FM192300 21009KT P6SM SKC=



000
FTUS43 KDLH 191500 AAA
TAFDLH
TAF AMD
KDLH 191528Z 1915/2012 14014KT P6SM OVC050
      TEMPO 1915/1918 4SM -RA OVC030
     FM191800 18009KT P6SM VCSH BKN060
     FM192200 15008KT P6SM SCT060=



000
FTUS43 KDLH 191300 AAA
TAFINL
TAF AMD
KINL 191325Z 1913/2012 13018G25KT P6SM BKN020 OVC040
      TEMPO 1914/1918 SCT020 OVC040
     FM191800 16015G25KT P6SM SCT021 BKN250
     FM192000 18010KT P6SM SCT015
     FM200000 VRB05KT 6SM BR BKN250=



000
FTUS43 KDLH 191300 AAA
TAFBRD
TAF AMD
KBRD 191324Z 1913/2012 16018G25KT P6SM -RA SCT025 OVC050
      TEMPO 1913/1917 5SM -RA OVC015
     FM191800 18014G22KT P6SM VCSH BKN035
     FM192000 20011KT P6SM SCT035 BKN060
     FM192300 21009KT P6SM SKC=



000
FTUS43 KDLH 191300 AAA
TAFDLH
TAF AMD
KDLH 191323Z 1913/2012 11018G25KT P6SM -RA OVC060
      TEMPO 1913/1915 5SM -FZRA OVC035
     FM191500 14014G22KT 5SM -RA BR OVC035
      TEMPO 1915/1918 2SM -RA OVC025
     FM191800 18009KT P6SM VCSH BKN060
     FM192200 15008KT P6SM SCT060=



000
FTUS43 KDLH 191100
TAFDLH
TAF
KDLH 191138Z 1912/2012 11018G25KT P6SM -RA OVC060
      TEMPO 1912/1913 3SM -RA OVC035
     FM191300 14014G22KT 5SM -RA BR OVC035
      TEMPO 1913/1917 2SM -RA OVC025
     FM191800 18009KT P6SM VCSH BKN060
     FM192200 15008KT P6SM SCT060=



000
FTUS43 KDLH 191100
TAFBRD
TAF
KBRD 191138Z 1912/2012 13018G25KT P6SM -RA SCT025 OVC050
      TEMPO 1912/1916 2SM -RA OVC015
     FM191700 18014G22KT P6SM VCSH BKN035
     FM192000 20011KT P6SM SCT035 BKN060
     FM192300 21009KT P6SM SKC=



000
FTUS43 KDLH 191100
TAFHYR
TAF
KHYR 191138Z 1912/2012 15017G27KT P6SM BKN050
     FM191400 17017G27KT 6SM -SHRA BKN035
      TEMPO 1914/1917 3SM -SHRA BR BKN015
     FM191900 21014G22KT P6SM VCSH SCT035 OVC060
     FM192100 22012G22KT P6SM -SHRA BKN035
      TEMPO 1921/1924 3SM -SHRA BR BKN035
     FM200100 20006KT P6SM OVC040=



000
FTUS43 KDLH 191100
TAFINL
TAF
KINL 191138Z 1912/2012 13018G25KT P6SM -RA BKN014 OVC021
     FM191800 16015G25KT P6SM SCT021 BKN250
     FM192000 18010KT P6SM SCT015
     FM200000 VRB05KT 6SM BR BKN250=



000
FTUS43 KDLH 191100 AAF
TAFINL
TAF AMD
KINL 191102Z 1911/2006 12018G28KT 6SM -RASN SCT035 OVC050
      TEMPO 1911/1913 3SM -RASN OVC012
     FM191800 16015G25KT P6SM SCT021 BKN250
     FM192000 18010KT P6SM SCT015
     FM200000 VRB05KT 6SM BR BKN250=



000
FTUS43 KDLH 191100 AAA
TAFDLH
TAF AMD
KDLH 191101Z 1911/2006 11018G25KT 6SM -RA OVC060
     FM191300 14014G24KT 3SM -RA BR OVC035
     FM191700 17008KT P6SM VCSH OVC060
     FM192300 VRB05KT 4SM BR SCT060=



000
FTUS43 KDLH 191000 AAE
TAFINL
TAF AMD
KINL 191035Z 1911/2006 12018G28KT 6SM -SHSN SCT035 OVC050
      TEMPO 1911/1912 1SM -SN OVC012
     FM191800 16015G25KT P6SM SCT021 BKN250
     FM192000 18010KT P6SM SCT015
     FM200000 VRB05KT 6SM BR BKN250=



000
FTUS43 KDLH 190900 AAD
TAFINL
TAF AMD
KINL 190935Z 1910/2006 13011G21KT 2SM -SN OVC025
      TEMPO 1910/1914 1/2SM SN OVC012
     FM191800 16015G25KT P6SM SCT021 BKN250
     FM192000 18010KT P6SM SCT015
     FM200000 VRB05KT 6SM BR BKN250=



000
FTUS43 KDLH 190800 AAC
TAFINL
TAF AMD
KINL 190831Z 1909/2006 13011G21KT 6SM -SN OVC035
      TEMPO 1908/1911 1 1/2SM -SN OVC025
     FM191100 14018G24KT 2SM -RA BR OVC021
     FM191800 16015G25KT P6SM SCT021 BKN250
     FM192000 18010KT P6SM SCT015
     FM200000 VRB05KT 6SM BR BKN250=



000
FTUS43 KDLH 190700 AAB
TAFINL
TAF AMD
KINL 190723Z 1907/2006 13011G21KT P6SM VCSH OVC045
      TEMPO 1907/1911 1 1/2SM -SN OVC025
     FM191100 14018G24KT 2SM -RA BR OVC021
     FM191800 16015G25KT P6SM SCT021 BKN250
     FM192000 18010KT P6SM SCT015
     FM200000 VRB05KT 6SM BR BKN250=



000
FTUS43 KDLH 190600 AAA
TAFINL
TAF AMD
KINL 190639Z 1907/2006 13011G21KT P6SM VCSH OVC045
      TEMPO 1907/1909 4SM -SN OVC035
     FM190900 12017G23KT 4SM -RASN BR OVC045
     FM191200 14018G24KT 2SM -RA BR OVC021
     FM191800 16015G25KT P6SM SCT021 BKN250
     FM192000 18010KT P6SM SCT015
     FM200000 VRB05KT 6SM BR BKN250=



000
FTUS43 KDLH 190500
TAFINL
TAF
KINL 190539Z 1906/2006 13011G21KT P6SM VCSH OVC045
     FM190900 12017G23KT 4SM -FZRASN BR OVC045
     FM191200 14018G24KT 2SM -RA BR OVC021
     FM191800 16015G25KT P6SM SCT021 BKN250
     FM192000 18010KT P6SM SCT015
     FM200000 VRB05KT 6SM BR BKN250=



000
FTUS43 KDLH 190500
TAFHYR
TAF
KHYR 190539Z 1906/2006 10008KT P6SM BKN250 WS015/18035KT
     FM191100 13012G22KT P6SM OVC100
     FM191500 16015G25KT P6SM VCSH OVC050
     FM191800 18012G19KT P6SM -RA OVC040
     FM200000 19006KT P6SM VCSH OVC040=



000
FTUS43 KDLH 190500
TAFDLH
TAF
KDLH 190539Z 1906/2006 09014KT P6SM SCT070 BKN250 WS020/18030KT
     FM190900 10017G23KT P6SM VCSH OVC050
     FM191100 13019G25KT 2SM -FZRA OVC045
     FM191300 14014G24KT 3SM -RA BR OVC035
     FM191700 17008KT P6SM VCSH OVC060
     FM192300 VRB05KT 4SM BR SCT060=



000
FTUS43 KDLH 190500
TAFBRD
TAF
KBRD 190539Z 1906/2006 12011G22KT P6SM BKN150
     FM190900 14018G28KT P6SM VCSH OVC090
     FM191100 15020G28KT P6SM VCSH OVC080
     FM191700 19015G23KT P6SM SCT080 BKN120
     FM192100 22010KT P6SM SCT120
     FM200300 21005KT P6SM SKC=



000
FTUS43 KDLH 182300
TAFDLH
TAF
KDLH 182337Z 1900/1924 09016KT P6SM BKN110
     FM190700 10012KT P6SM OVC060 WS020/16037KT
     FM190900 10017G27KT P6SM VCSH OVC050
     FM191100 12019G25KT 2SM -FZRA OVC040
     FM191500 14012KT 3SM -RA BR OVC035
     FM191900 17008KT P6SM SCT035 BKN100=



000
FTUS43 KDLH 182300
TAFINL
TAF
KINL 182337Z 1900/1924 14013KT P6SM SCT080 BKN250
     FM190500 11012KT P6SM VCSH OVC050 WS015/18038KT
     FM190900 12017G27KT 4SM -FZRASN BR OVC014
     FM191200 14020G30KT 2SM -RA BR OVC010
     FM191800 17015G25KT 6SM -RA BR OVC015
     FM192000 18010KT P6SM SCT015=



000
FTUS43 KDLH 182300
TAFBRD
TAF
KBRD 182337Z 1900/1924 13012G22KT P6SM SCT070 BKN110
     FM190700 14015G25KT P6SM VCSH OVC070
     FM190900 14018G28KT 4SM -RA BR OVC050
     FM191400 16013G23KT P6SM OVC025
     FM191800 19011G21KT P6SM SCT025 BKN100
     FM192100 22010KT P6SM SCT100=



000
FTUS43 KDLH 182300
TAFHYR
TAF
KHYR 182337Z 1900/1924 08008KT P6SM BKN100
     FM190700 12009KT P6SM OVC100 WS015/18035KT
     FM191100 15014G24KT P6SM VCSH OVC050
     FM191300 15020G28KT P6SM -RA OVC045
     FM192000 18010KT P6SM -RA OVC040=



000
FTUS43 KDLH 182200 AAA
TAFINL
TAF AMD
KINL 182214Z 1822/1918 12006KT P6SM SCT250
     FM190500 12012KT 2SM -SN OVC020
      TEMPO 1908/1912 1/2SM -SN FG OVC004
     FM191200 12013KT 2SM -FZRASN OVC010
     FM191600 10015G25KT 3SM -RA OVC006=



000
FTUS43 KDLH 181700
TAFDLH
TAF
KDLH 181728Z 1818/1918 11009KT P6SM SCT100
     FM190800 10012KT P6SM OVC030 WS015/16045KT PROB30 1908/1910 4SM
      -FZRASN OVC020
     FM191000 10012KT 4SM -FZRASN OVC010
     FM191400 10015G25KT 2SM -RA OVC006
      TEMPO 1914/1917 1/2SM -RA FG OVC004=



000
FTUS43 KDLH 181700
TAFINL
TAF
KINL 181728Z 1818/1918 10010G18KT P6SM SKC
     FM181900 11011G20KT P6SM BKN100
     FM190500 12012KT 2SM -SN OVC020
      TEMPO 1908/1912 1/2SM -SN FG OVC004
     FM191200 12013KT 2SM -FZRASN OVC010
     FM191600 10015G25KT 3SM -RA OVC006=



000
FTUS43 KDLH 181700
TAFHYR
TAF
KHYR 181728Z 1818/1918 04007KT P6SM SCT100
     FM190900 14009KT P6SM OVC060
     FM191200 14013KT P6SM OVC020=



000
FTUS43 KDLH 181700
TAFBRD
TAF
KBRD 181728Z 1818/1918 11010KT P6SM OVC100
     FM190900 14013KT 6SM -RA OVC030
     FM191200 14015KT 4SM -RA BR OVC015=



000
FTUS43 KDLH 181100
TAFBRD
TAF
KBRD 181134Z 1812/1912 VRB02KT P6SM OVC100
     FM181900 13011G20KT P6SM BKN080
     FM190900 14013KT 6SM -RA OVC030 WS015/17050KT=



000
FTUS43 KDLH 181100
TAFINL
TAF
KINL 181134Z 1812/1912 VRB02KT P6SM SKC
     FM181900 11008KT P6SM BKN100
     FM190500 12012KT 5SM -FZRASN OVC030
     FM190900 12013KT 5SM -FZRA OVC020 WS015/16045KT=



000
FTUS43 KDLH 181100
TAFHYR
TAF
KHYR 181134Z 1812/1912 00000KT 1/4SM FG VV002
      TEMPO 1812/1813 2SM BR SCT001
     FM181300 VRB03KT P6SM SCT100
     FM190900 14009KT P6SM OVC060 WS015/17040KT=



000
FTUS43 KDLH 181100
TAFDLH
TAF
KDLH 181134Z 1812/1912 VRB03KT P6SM SCT110
     FM181900 11008KT P6SM BKN100
     FM190900 10012KT 6SM -FZRASN OVC030 WS015/16045KT=



000
FTUS43 KDLH 181000 AAB
TAFHYR
TAF AMD
KHYR 181055Z 1811/1906 00000KT 1/4SM FZFG VV002
      TEMPO 1811/1813 1SM BR SCT001
     FM181300 VRB03KT P6SM SCT150
     FM182100 10006KT P6SM SCT090 BKN150=



000
FTUS43 KDLH 180800 AAA
TAFHYR
TAF AMD
KHYR 180815Z 1808/1906 00000KT 1SM BR VCFG SCT001
      TEMPO 1808/1811 1/4SM FG VV001
     FM181300 VRB03KT P6SM BKN150
     FM182100 10006KT P6SM SCT090 BKN150=



000
FTUS43 KDLH 180500
TAFINL
TAF
KINL 180520Z 1806/1906 VRB03KT P6SM SKC
     FM181800 11008KT P6SM BKN200
     FM190100 12010KT P6SM OVC090
     FM190300 14012KT P6SM VCSH SCT030 OVC050=



000
FTUS43 KDLH 180500
TAFHYR
TAF
KHYR 180520Z 1806/1906 00000KT 2SM BR SKC
      TEMPO 1806/1808 1/4SM FG VV002
     FM180800 VRB05KT P6SM BKN150
     FM182100 10006KT P6SM SCT090 BKN150=



000
FTUS43 KDLH 180500
TAFBRD
TAF
KBRD 180520Z 1806/1906 VRB03KT P6SM SCT110
     FM180800 14003KT P6SM SCT070 BKN090
     FM181700 13011G16KT P6SM BKN070
     FM182000 12012G22KT P6SM SCT040 OVC070=



000
FTUS43 KDLH 180500
TAFDLH
TAF
KDLH 180520Z 1806/1906 VRB03KT P6SM SCT110
     FM181700 11008KT P6SM BKN250
     FM190000 08010KT P6SM OVC090=



000
FTUS43 KDLH 180300 AAB
TAFHYR
TAF AMD
KHYR 180357Z 1804/1824 VRB03KT 2SM BR SKC
      TEMPO 1804/1808 1/4SM FZFG VV002
     FM181800 11005KT P6SM BKN150=



000
FTUS43 KDLH 180100 AAA
TAFHYR
TAF AMD
KHYR 180100Z 1801/1824 VRB04KT P6SM OVC035
     FM180200 VRB03KT P6SM SCT035
      TEMPO 1804/1808 2SM BR
     FM181800 11005KT P6SM BKN150=



000
FTUS43 KDLH 172300
TAFHYR
TAF
KHYR 172338Z 1800/1824 VRB04KT P6SM OVC029
     FM180200 VRB03KT P6SM SCT035
      TEMPO 1804/1808 2SM BR
     FM181800 11005KT P6SM BKN150=



000
FTUS43 KDLH 172300
TAFINL
TAF
KINL 172338Z 1800/1824 VRB05KT P6SM SCT050
     FM181800 11008KT P6SM BKN200=



000
FTUS43 KDLH 172300
TAFBRD
TAF
KBRD 172338Z 1800/1824 VRB05KT P6SM SKC
     FM180800 VRB03KT P6SM SCT070 BKN100
     FM181600 12011G16KT P6SM BKN070
     FM182000 12012G22KT P6SM VCSH SCT040 OVC070=



000
FTUS43 KDLH 172300
TAFDLH
TAF
KDLH 172338Z 1800/1824 35008KT P6SM SCT035
     FM180200 35005KT P6SM SKC
      TEMPO 1808/1812 3SM BR
     FM181700 11008KT P6SM BKN250=



000
FTUS43 KDLH 172200 AAC
TAFHYR
TAF AMD
KHYR 172219Z 1722/1818 VRB04KT P6SM OVC025
     FM180200 00000KT P6SM SKC
      TEMPO 1804/1808 2SM BR=



000
FTUS43 KDLH 172100 AAA
TAFDLH
TAF AMD
KDLH 172111Z 1721/1818 31007KT P6SM OVC035
     FM172200 34008KT P6SM BKN035
     FM180200 32005KT P6SM SKC
     FM181500 12005KT P6SM SKC=



000
FTUS43 KDLH 172100 AAB
TAFHYR
TAF AMD
KHYR 172111Z 1721/1818 VRB04KT P6SM OVC022
     FM172200 30005KT P6SM OVC010
     FM180400 00000KT P6SM SKC
      TEMPO 1804/1808 2SM BR=



000
FTUS43 KDLH 171900 AAA
TAFHYR
TAF AMD
KHYR 171948Z 1720/1818 VRB04KT P6SM OVC016
     FM172200 30005KT P6SM OVC010
     FM180400 00000KT P6SM SKC
      TEMPO 1804/1808 2SM BR=



000
FTUS43 KDLH 171700
TAFINL
TAF
KINL 171726Z 1718/1818 03008KT P6SM OVC035
     FM180000 VRB03KT P6SM SKC
     FM181500 12005KT P6SM SKC=



000
FTUS43 KDLH 171700
TAFDLH
TAF
KDLH 171726Z 1718/1818 35011KT P6SM BKN025
     FM172200 34008KT P6SM BKN035
     FM180200 32005KT P6SM SKC
     FM181500 12005KT P6SM SKC=



000
FTUS43 KDLH 171700
TAFBRD
TAF
KBRD 171726Z 1718/1818 36010KT P6SM SKC
     FM180000 VRB04KT P6SM SKC
     FM181300 11006KT P6SM SKC=



000
FTUS43 KDLH 171700
TAFHYR
TAF
KHYR 171726Z 1718/1818 VRB04KT P6SM OVC007
     FM172200 30005KT P6SM OVC010
     FM180400 00000KT P6SM SKC
      TEMPO 1804/1808 2SM BR=



000
FTUS43 KDLH 171600 AAC
TAFBRD
TAF AMD
KBRD 171641Z 1717/1812 34012KT P6SM FEW020
     FM180000 VRB04KT P6SM SKC=



000
FTUS43 KDLH 171600 AAB
TAFHYR
TAF AMD
KHYR 171641Z 1717/1812 02005KT P6SM OVC006
     FM172000 33007KT P6SM OVC015
     FM180000 30005KT P6SM FEW030 BKN040=



000
FTUS43 KDLH 171600 AAA
TAFDLH
TAF AMD
KDLH 171639Z 1717/1812 34011G18KT P6SM -SN BKN025
     FM172200 33008KT P6SM SCT030 BKN035
     FM180100 34006KT P6SM SKC=



000
FTUS43 KDLH 171500 AAB
TAFBRD
TAF AMD
KBRD 171508Z 1715/1812 35012KT P6SM BKN200
     FM180000 VRB04KT P6SM SKC=



000
FTUS43 KDLH 171500 AAB
TAFINL
TAF AMD
KINL 171507Z 1715/1812 03008KT P6SM BKN035
      TEMPO 1715/1718 SCT035
     FM180000 VRB03KT P6SM SKC=



000
FTUS43 KDLH 171400 AAA
TAFINL
TAF AMD
KINL 171401Z 1714/1812 03008KT P6SM SCT025
      TEMPO 1714/1718 BKN025=



000
FTUS43 KDLH 171300 AAA
TAFHYR
TAF AMD
KHYR 171310Z 1713/1812 02005KT 2SM BR OVC007
     FM171700 33007KT P6SM OVC025
     FM180000 30005KT P6SM FEW030 BKN040=



000
FTUS43 KDLH 171200 AAB
TAFDLH
TAF AMD
KDLH 171257Z 1713/1812 35010KT P6SM OVC010
     FM171500 36011G18KT P6SM -SN SCT007 OVC012
     FM172200 33008KT P6SM SCT030 BKN035
     FM180100 34006KT P6SM SKC=



000
FTUS43 KDLH 171100 AAA
TAFBRD
TAF AMD
KBRD 171200Z 1712/1812 36008KT P6SM BKN020 OVC035
     FM171600 35009G15KT P6SM SCT035
     FM180000 VRB04KT P6SM SKC=



000
FTUS43 KDLH 171100 AAA
TAFDLH
TAF AMD
KDLH 171159Z 1712/1812 02009KT P6SM -SN OVC007
     FM171500 36011G18KT P6SM -SN SCT007 OVC012
     FM172200 33008KT P6SM SCT030 BKN035
     FM180100 34006KT P6SM SKC=



000
FTUS43 KDLH 171100
TAFHYR
TAF
KHYR 171120Z 1712/1812 02005KT P6SM -SN OVC015
     FM171700 33007KT P6SM OVC025
     FM180000 30005KT P6SM FEW030 BKN040=



000
FTUS43 KDLH 171100
TAFINL
TAF
KINL 171120Z 1712/1812 02005KT P6SM SKC
      TEMPO 1718/1721 SCT030=



000
FTUS43 KDLH 171100
TAFDLH
TAF
KDLH 171120Z 1712/1812 04010G20KT 6SM -SN OVC006
     FM171500 02011G18KT P6SM -SN SCT007 OVC012
     FM172200 33008KT P6SM SCT030 BKN035
     FM180100 34006KT P6SM SKC=



000
FTUS43 KDLH 171100
TAFBRD
TAF
KBRD 171120Z 1712/1812 36008KT P6SM SCT020 OVC035
     FM171600 35009G15KT P6SM SCT035
     FM180000 VRB04KT P6SM SKC=



    US Dept of Commerce
    National Oceanic and Atmospheric Administration
    National Weather Service
    1325 East West Highway
    Silver Spring, MD 20910
    Page Author: NWS Internet Services Team
Disclaimer
Information Quality
Credits
Glossary
Privacy Policy
Freedom of Information Act (FOIA)
About Us
Career Opportunities